Terminal Aerodrome Forecast
Issued by NWS

Home | Current Version | Previous Version | Text Only | Print | Product List | Glossary Off
Versions: 1 2 3 4 5 6 7 8 9 10 11 12 13

694
FTUS43 KDLH 201720
TAFHYR
TAF
KHYR 201720Z 2018/2118 22005KT P6SM SCT250
     FM210100 00000KT P6SM FEW200=

USA.gov is the U.S. government's official web portal to all federal, state and local government web resources and services.